BKDO2: Broken Bow Lake

Data processed at Fri Jan 05 2018 23:08


All information presented herein is the property of the government of the United States of America and may be revised or deleted at any time without prior notice.
Dissemination of this information without the expressed written consent of the Public Affairs Office, Tulsa District U.S. Army Corps of Engineers is strictly prohibited.
These data are gathered electronically and, as presented, have not undergone any form of quality control. These data are not guaranteed to be valid or correct.
Go to home page.
Go to station list.

Upstream stations:

Downstream station:
Previous Day
Next Day
Current Day
    
SHEF ID:       BKDO2     Broken Bow Lake
STATION TYPE:  RESERVOIR
Normal Pool:  Bottom =   559.00, Top =   599.50

               PRECIP ELEVATION   STORAGE   TW-ELEV    INFLOW   RELEASE  AIR-TEMP  WIND-DIRWIND-SPEED REL-HUMID SOLAR-RAD   VOLTAGE  BAT-LOAD
                   in        ft     ac-ft        ft       cfs       cfs         F       deg       mph         %      W/m2      volt      volt
              Ccp-Rev   Ccp-Rev   Ccp-Rev   Ccp-Rev  Regi-Rev  Regi-Rev   Ccp-Rev   Ccp-Rev   Ccp-Rev   Ccp-Rev   Ccp-Rev   Ccp-Rev   Ccp-Rev
(US/Central)
01/03 00:00      0.00    590.78    800310    401.11        18       132     21.33    140.50      0.84     55.19      0.00     12.87     12.48
01/03 01:00      0.00    590.79    800434    401.11        19       132     21.97    291.40      0.06     47.25      0.00     12.86     12.48
01/03 02:00      0.00    590.79    800434    401.11        16       132     20.77    310.80      0.14     48.60      0.00     12.83     12.42
01/03 03:00      0.00    590.79    800434    401.11        12       132     20.55    310.60      2.33     50.79      0.00     12.80     12.42
01/03 04:00      0.00    590.78    800310    401.11         7       132     19.00    311.00      0.65     58.12      0.00     12.79     12.42
01/03 05:00      0.00    590.80    800558    401.11         3       132     19.99    304.60      1.81     57.26      0.00     12.76     12.36
01/03 06:00      0.00    590.78    800310    401.11         2       132     18.57    305.40      2.45     54.46      0.00     12.75     12.36
01/03 07:00      0.00    590.77    800186    403.83         0      1423     16.27    287.10      0.01     59.77      0.00     12.73     12.36
01/03 08:00      0.00    590.73    799689    405.38        20      6985     14.95    297.30      0.74     72.78     12.00     12.72     12.30
01/03 09:00      0.00    590.68    799069    404.62        41      7009     19.35    270.00      0.00     57.82     34.00     12.75     12.30
01/03 10:00      0.00    590.67    798945    402.97        45      4144     26.92    303.10      0.68     43.66    354.00     12.90     12.36
01/03 11:00      0.00    590.66    798821    401.11        97       130     29.68    302.30      1.59     42.50    470.00     13.10     12.48
01/03 12:00      0.00    590.66    798821    401.11       123       130     34.84    259.30      0.30     34.25    534.00     13.66     12.65
01/03 13:00      0.00    590.67    798945    401.11       129       130     38.57    310.50      1.00     31.81    538.00     14.00     13.77
01/03 14:00      0.00    590.67    798945    401.11       135       130     41.54    306.60      3.96     36.75    485.00     14.17     13.77
01/03 15:00      0.00    590.68    799069    401.11       226       131     42.21    299.80      4.77     36.45    379.00     13.62     14.06
01/03 16:00      0.00    590.67    798945    401.10       189       130     40.87    307.70      3.51     31.32    199.00     13.54     13.53
01/03 17:00      0.00    590.65    798696    403.74       168      1420     38.89    309.10      3.93     35.78     42.00     13.21     13.07
01/03 18:00      0.00    590.62    798324    405.45       142      7039     36.27    307.20      6.09     42.00      0.00     13.13     12.83
01/03 19:00      0.00    590.56    797580    405.46       116      7094     35.06    304.60      5.26     47.31      0.00     13.09     12.71
01/03 20:00      0.00    590.53    797207    403.84        21      6890     33.84    307.50      4.54     50.85      0.00     13.06     12.65
01/03 21:00      0.00    590.51    796959    401.11         6       743     32.18    304.10      4.02     52.80      0.00     13.04     12.65
01/03 22:00      0.00    590.53    797207    401.10         2       126     33.73    306.30      2.76     55.68      0.00     13.01     12.65
01/03 23:00      0.00    590.52    797083    401.10         3       127     33.62    302.10      3.54     55.07      0.00     12.99     12.60